createdAt,value
2023-05-03T00:01:37.448Z,69.10
2023-05-03T00:03:40.202Z,69.10
2023-05-03T00:05:43.152Z,69.10
2023-05-03T00:07:46.998Z,69.00
2023-05-03T00:09:50.064Z,68.90
2023-05-03T00:11:53.413Z,68.90
2023-05-03T00:13:56.169Z,68.70
2023-05-03T00:16:00.271Z,68.40
2023-05-03T00:18:03.168Z,68.50
2023-05-03T00:20:08.152Z,68.60
2023-05-03T00:22:12.600Z,68.70
2023-05-03T00:24:15.340Z,68.80
2023-05-03T00:26:18.147Z,68.80
2023-05-03T00:28:21.133Z,68.60
2023-05-03T00:30:25.606Z,68.40
2023-05-03T00:32:30.810Z,68.40
2023-05-03T00:34:33.591Z,68.50
2023-05-03T00:36:37.253Z,68.60
2023-05-03T00:38:41.498Z,68.60
2023-05-03T00:40:44.359Z,68.50
2023-05-03T00:42:47.175Z,68.50
2023-05-03T00:44:49.956Z,68.50
2023-05-03T00:46:52.909Z,68.50
2023-05-03T00:48:57.137Z,68.50
2023-05-03T00:51:01.183Z,69.10
2023-05-03T00:53:03.991Z,69.60
2023-05-03T00:55:08.491Z,69.60
2023-05-03T00:57:11.890Z,69.60
2023-05-03T00:59:14.676Z,69.40
2023-05-03T01:01:18.140Z,69.30
2023-05-03T01:03:21.007Z,69.20
2023-05-03T01:05:27.010Z,69.20
2023-05-03T01:07:39.076Z,69.20
2023-05-03T01:09:50.236Z,69.00
2023-05-03T01:12:02.880Z,68.70
2023-05-03T01:14:11.567Z,68.50
2023-05-03T01:16:19.843Z,68.70
2023-05-03T01:18:29.683Z,68.90
2023-05-03T01:20:37.560Z,68.80
2023-05-03T01:22:47.612Z,68.80
2023-05-03T01:24:53.627Z,68.60
2023-05-03T01:26:57.859Z,68.70
2023-05-03T01:29:04.423Z,68.70
2023-05-03T01:31:07.420Z,68.60
2023-05-03T01:33:14.635Z,68.70
2023-05-03T01:35:24.209Z,68.70
2023-05-03T01:37:27.025Z,68.70
2023-05-03T01:39:34.162Z,68.90
2023-05-03T01:41:38.019Z,69.10
2023-05-03T01:43:42.916Z,68.80
2023-05-03T01:45:46.108Z,68.70
2023-05-03T01:47:48.881Z,68.70
2023-05-03T01:49:51.645Z,68.80
2023-05-03T01:51:54.329Z,68.70
2023-05-03T01:53:57.106Z,68.70
2023-05-03T01:55:59.962Z,68.80
2023-05-03T01:58:02.869Z,69.00
2023-05-03T02:00:09.860Z,69.10
2023-05-03T02:02:12.616Z,69.60
2023-05-03T02:04:15.512Z,70.20
2023-05-03T02:06:18.315Z,70.50
2023-05-03T02:08:21.028Z,70.50
2023-05-03T02:10:24.018Z,71.10
2023-05-03T02:12:26.738Z,70.40
2023-05-03T02:14:29.485Z,70.10
2023-05-03T02:16:33.604Z,70.00
2023-05-03T02:18:36.833Z,69.90
2023-05-03T02:20:39.697Z,70.10
2023-05-03T02:22:43.073Z,70.50
2023-05-03T02:24:45.909Z,70.80
2023-05-03T02:26:48.749Z,70.60
2023-05-03T02:28:51.568Z,70.50
2023-05-03T02:30:54.374Z,70.50
2023-05-03T02:32:58.523Z,70.50
2023-05-03T02:35:01.781Z,70.60
2023-05-03T02:37:05.275Z,71.00
2023-05-03T02:39:08.029Z,71.40
2023-05-03T02:41:10.783Z,71.10
2023-05-03T02:43:13.524Z,71.00
2023-05-03T02:45:16.348Z,70.70
2023-05-03T02:47:19.167Z,70.90
2023-05-03T02:49:23.594Z,70.70
2023-05-03T02:51:27.379Z,70.40
2023-05-03T02:53:30.193Z,70.30
2023-05-03T02:55:32.965Z,70.30
2023-05-03T02:57:35.955Z,70.10
2023-05-03T02:59:38.762Z,70.00
2023-05-03T03:01:41.503Z,70.20
2023-05-03T03:03:44.340Z,70.30
2023-05-03T03:05:48.709Z,70.40
2023-05-03T03:07:51.650Z,70.40
2023-05-03T03:09:54.484Z,70.50
2023-05-03T03:11:57.526Z,70.60
2023-05-03T03:14:00.229Z,70.70
2023-05-03T03:16:03.454Z,70.50
2023-05-03T03:18:06.609Z,70.30
2023-05-03T03:20:11.670Z,70.10
2023-05-03T03:22:15.748Z,70.30
2023-05-03T03:24:18.576Z,70.80
2023-05-03T03:26:21.345Z,71.00
2023-05-03T03:28:24.068Z,71.00
2023-05-03T03:30:26.850Z,71.00
2023-05-03T03:32:29.619Z,70.80
2023-05-03T03:34:33.061Z,70.50
2023-05-03T03:36:37.970Z,70.30
2023-05-03T03:38:42.065Z,70.20
2023-05-03T03:40:44.945Z,70.20
2023-05-03T03:42:47.681Z,70.70
2023-05-03T03:44:50.632Z,69.90
2023-05-03T03:46:53.451Z,69.80
2023-05-03T03:48:56.222Z,69.90
2023-05-03T03:50:59.099Z,69.80
2023-05-03T03:53:01.824Z,69.90
2023-05-03T03:55:06.510Z,69.90
2023-05-03T03:57:09.248Z,70.00
2023-05-03T03:59:11.959Z,70.00
2023-05-03T04:01:14.778Z,70.00
2023-05-03T04:03:17.690Z,69.90
2023-05-03T04:05:20.700Z,69.90
2023-05-03T04:07:23.456Z,70.00
2023-05-03T04:09:26.197Z,69.80
2023-05-03T04:11:30.651Z,70.00
2023-05-03T04:13:33.442Z,70.20
2023-05-03T04:15:36.268Z,70.50
2023-05-03T04:17:39.056Z,70.60
2023-05-03T04:19:41.913Z,70.80
2023-05-03T04:21:44.610Z,71.50
2023-05-03T04:23:47.348Z,72.10
2023-05-03T04:25:50.142Z,72.10
2023-05-03T04:27:54.374Z,72.60
2023-05-03T04:29:57.912Z,72.60
2023-05-03T04:32:01.312Z,73.20
2023-05-03T04:34:04.106Z,72.40
2023-05-03T04:36:07.749Z,72.40
2023-05-03T04:38:10.841Z,72.50
2023-05-03T04:40:13.904Z,72.40
2023-05-03T04:42:16.672Z,72.60
2023-05-03T04:44:21.164Z,72.70
2023-05-03T04:46:24.026Z,72.80
2023-05-03T04:48:26.864Z,72.50
2023-05-03T04:50:29.619Z,72.20
2023-05-03T04:52:32.794Z,72.00
2023-05-03T04:54:35.558Z,71.70
2023-05-03T04:56:38.333Z,71.20
2023-05-03T04:58:41.322Z,71.10
2023-05-03T05:00:46.542Z,70.80
2023-05-03T05:02:49.409Z,70.40
2023-05-03T05:04:52.208Z,70.40
2023-05-03T05:06:55.591Z,70.50
2023-05-03T05:08:58.369Z,70.80
2023-05-03T05:11:03.663Z,70.60
2023-05-03T05:13:06.511Z,70.40
2023-05-03T05:15:10.124Z,70.20
2023-05-03T05:17:14.258Z,70.30
2023-05-03T05:19:17.083Z,70.20
2023-05-03T05:21:20.284Z,69.90
2023-05-03T05:23:23.059Z,70.10
2023-05-03T05:25:26.142Z,69.90
2023-05-03T05:27:29.001Z,70.00
2023-05-03T05:29:31.709Z,69.90
2023-05-03T05:31:35.108Z,69.70
2023-05-03T05:33:39.324Z,69.50
2023-05-03T05:35:42.123Z,69.70
2023-05-03T05:37:44.930Z,69.50
2023-05-03T05:39:47.834Z,69.30
2023-05-03T05:41:50.740Z,69.30
2023-05-03T05:43:53.565Z,69.50
2023-05-03T05:45:56.343Z,69.50
2023-05-03T05:47:59.182Z,69.10
2023-05-03T05:50:09.648Z,68.40
2023-05-03T05:52:15.106Z,68.30
2023-05-03T05:54:17.878Z,68.00
2023-05-03T05:56:21.596Z,67.60
2023-05-03T05:58:24.394Z,67.80
2023-05-03T06:00:27.214Z,67.80
2023-05-03T06:02:30.056Z,67.70
2023-05-03T06:04:32.901Z,67.60
2023-05-03T06:06:37.319Z,67.50
2023-05-03T06:08:40.547Z,67.40
2023-05-03T06:10:43.680Z,67.50
2023-05-03T06:12:46.449Z,67.80
2023-05-03T06:15:01.266Z,67.80
2023-05-03T06:17:05.034Z,67.40
2023-05-03T06:19:07.843Z,67.50
2023-05-03T06:21:11.454Z,67.20
2023-05-03T06:23:15.910Z,66.70
2023-05-03T06:25:18.793Z,67.20
2023-05-03T06:27:21.609Z,67.30
2023-05-03T06:29:24.411Z,67.10
2023-05-03T06:31:27.180Z,67.30
2023-05-03T06:33:30.040Z,67.40
2023-05-03T06:35:33.014Z,67.20
2023-05-03T06:37:35.908Z,66.90
2023-05-03T06:39:39.991Z,66.70
2023-05-03T06:41:42.773Z,67.00
2023-05-03T06:43:45.658Z,66.90
2023-05-03T06:45:48.468Z,66.80
2023-05-03T06:47:51.297Z,66.80
2023-05-03T06:49:54.439Z,66.00
2023-05-03T06:51:57.200Z,66.20
2023-05-03T06:54:06.558Z,66.00
2023-05-03T06:56:10.756Z,66.10
2023-05-03T06:58:14.690Z,66.20
2023-05-03T07:00:18.230Z,66.20
2023-05-03T07:02:21.198Z,65.70
2023-05-03T07:04:23.990Z,65.10
2023-05-03T07:06:26.947Z,64.30
2023-05-03T07:08:29.756Z,65.30
2023-05-03T07:10:32.506Z,64.00
2023-05-03T07:12:36.644Z,63.80
2023-05-03T07:14:39.689Z,63.70
2023-05-03T07:16:42.921Z,63.90
2023-05-03T07:18:46.187Z,63.50
2023-05-03T07:20:49.051Z,62.60
2023-05-03T07:22:52.053Z,62.70
2023-05-03T07:24:57.325Z,63.20
2023-05-03T07:27:00.228Z,62.20
2023-05-03T07:29:04.389Z,61.20
2023-05-03T07:31:07.189Z,61.50
2023-05-03T07:33:09.948Z,61.90
2023-05-03T07:35:12.797Z,61.50
2023-05-03T07:37:15.563Z,60.40
2023-05-03T07:39:18.606Z,60.80
2023-05-03T07:41:21.365Z,60.80
2023-05-03T07:43:24.486Z,60.60
2023-05-03T07:45:28.716Z,59.90
2023-05-03T07:47:32.798Z,60.40
2023-05-03T07:49:36.449Z,58.60
2023-05-03T07:51:39.914Z,59.90
2023-05-03T07:53:42.803Z,59.20
2023-05-03T07:55:45.886Z,59.40
2023-05-03T07:57:48.664Z,59.00
2023-05-03T07:59:51.675Z,59.60
2023-05-03T08:01:55.951Z,59.60
2023-05-03T08:03:59.385Z,59.00
2023-05-03T08:06:02.466Z,59.80
2023-05-03T08:08:05.648Z,58.90
2023-05-03T08:10:09.476Z,59.50
2023-05-03T08:12:12.228Z,58.90
2023-05-03T08:14:14.997Z,58.90
2023-05-03T08:16:17.824Z,58.80
2023-05-03T08:18:23.691Z,58.90
2023-05-03T08:20:27.270Z,56.40
2023-05-03T08:22:30.479Z,58.60
2023-05-03T08:24:33.294Z,58.00
2023-05-03T08:26:36.698Z,58.80
2023-05-03T08:28:39.699Z,58.00
2023-05-03T08:30:42.484Z,58.40
2023-05-03T08:32:45.316Z,57.70
2023-05-03T08:34:50.553Z,57.60
2023-05-03T08:36:53.357Z,57.60
2023-05-03T08:38:56.104Z,58.10
2023-05-03T08:41:05.941Z,57.30
2023-05-03T08:43:10.561Z,57.50
2023-05-03T08:45:15.895Z,57.40
2023-05-03T08:47:18.802Z,56.70
2023-05-03T08:49:22.428Z,55.20
2023-05-03T08:51:27.698Z,55.70
2023-05-03T08:53:31.179Z,56.90
2023-05-03T08:55:33.986Z,57.40
2023-05-03T08:57:37.103Z,54.80
2023-05-03T08:59:49.813Z,55.60
2023-05-03T09:01:54.973Z,55.50
2023-05-03T09:03:58.067Z,55.00
2023-05-03T09:06:02.279Z,55.40
2023-05-03T09:08:08.401Z,56.40
2023-05-03T09:10:23.865Z,55.70
2023-05-03T09:12:36.735Z,55.10
2023-05-03T09:14:46.766Z,55.60
2023-05-03T09:16:49.569Z,55.60
2023-05-03T09:18:59.599Z,54.50
2023-05-03T09:21:02.355Z,55.50
2023-05-03T09:23:08.024Z,56.10
2023-05-03T09:25:12.152Z,55.70
2023-05-03T09:27:21.287Z,55.30
2023-05-03T09:29:31.761Z,54.10
2023-05-03T09:31:35.645Z,53.50
2023-05-03T09:33:38.479Z,53.80
2023-05-03T09:35:57.304Z,55.50
2023-05-03T09:38:00.371Z,54.70
2023-05-03T09:40:10.219Z,55.40
2023-05-03T09:42:14.966Z,54.90
2023-05-03T09:44:18.228Z,54.70
2023-05-03T09:46:21.465Z,55.10
2023-05-03T09:48:27.767Z,55.10
2023-05-03T09:50:32.306Z,55.50
2023-05-03T09:52:35.650Z,55.20
2023-05-03T09:54:38.899Z,54.80
2023-05-03T09:56:44.785Z,54.80
2023-05-03T09:58:47.788Z,54.10
2023-05-03T10:00:52.587Z,53.70
2023-05-03T10:02:58.132Z,53.50
2023-05-03T10:05:01.436Z,53.60
2023-05-03T10:07:10.053Z,53.00
2023-05-03T10:09:16.801Z,53.30
2023-05-03T10:11:19.894Z,53.60
2023-05-03T10:13:24.794Z,53.30
2023-05-03T10:15:28.698Z,52.80
2023-05-03T10:17:47.197Z,53.10
2023-05-03T10:19:54.629Z,53.50
2023-05-03T10:22:04.703Z,53.70
2023-05-03T10:24:12.613Z,53.90
2023-05-03T10:26:16.267Z,52.30
2023-05-03T10:28:20.202Z,52.10
2023-05-03T10:30:32.573Z,52.70
2023-05-03T10:32:37.380Z,52.80
2023-05-03T10:34:40.755Z,52.40
2023-05-03T10:36:49.712Z,52.60
2023-05-03T10:38:54.235Z,52.60
2023-05-03T10:40:58.957Z,52.40
2023-05-03T10:43:01.837Z,52.00
2023-05-03T10:45:07.123Z,53.40
2023-05-03T10:47:16.133Z,52.90
2023-05-03T10:49:20.762Z,53.50
2023-05-03T10:51:37.305Z,52.20
2023-05-03T10:53:43.344Z,52.30
2023-05-03T10:56:05.939Z,52.80
2023-05-03T10:58:15.184Z,52.90
2023-05-03T11:00:23.555Z,52.20
2023-05-03T11:02:34.311Z,51.90
2023-05-03T11:04:42.822Z,50.60
2023-05-03T11:06:49.559Z,50.50
2023-05-03T11:08:52.480Z,51.00
2023-05-03T11:10:59.214Z,51.50
2023-05-03T11:13:02.437Z,49.40
2023-05-03T11:15:05.855Z,50.60
2023-05-03T11:17:09.136Z,50.70
2023-05-03T11:19:13.623Z,50.50
2023-05-03T11:21:16.772Z,50.80
2023-05-03T11:23:19.595Z,50.30
2023-05-03T11:25:22.350Z,50.40
2023-05-03T11:27:25.485Z,51.10
2023-05-03T11:29:28.657Z,51.00
2023-05-03T11:31:31.948Z,50.40
2023-05-03T11:33:35.629Z,50.20
2023-05-03T11:35:40.650Z,49.20
2023-05-03T11:37:44.270Z,49.60
2023-05-03T11:39:47.841Z,50.40
2023-05-03T11:42:04.363Z,50.70
2023-05-03T11:44:15.966Z,51.00
2023-05-03T11:46:24.324Z,50.30
2023-05-03T11:48:30.534Z,50.30
2023-05-03T11:50:47.852Z,50.00
2023-05-03T11:52:51.017Z,49.40
2023-05-03T11:54:53.740Z,49.60
2023-05-03T11:56:59.050Z,50.10
2023-05-03T11:59:02.202Z,50.10
2023-05-03T12:01:05.882Z,50.20
2023-05-03T12:03:10.747Z,49.60
2023-05-03T12:05:14.515Z,49.60
2023-05-03T12:07:21.611Z,49.50
2023-05-03T12:09:27.407Z,48.70
2023-05-03T12:11:33.459Z,48.80
2023-05-03T12:13:40.678Z,49.10
2023-05-03T12:15:50.517Z,49.30
2023-05-03T12:18:00.677Z,49.10
2023-05-03T12:20:51.785Z,48.90
2023-05-03T12:22:44.506Z,48.60
2023-05-03T12:24:49.642Z,48.30
2023-05-03T12:26:53.168Z,48.90
2023-05-03T12:28:57.215Z,48.80
2023-05-03T12:31:00.238Z,48.50
2023-05-03T12:33:04.952Z,48.60
2023-05-03T12:35:11.419Z,48.40
2023-05-03T12:37:17.350Z,48.10
2023-05-03T12:39:22.168Z,48.90
2023-05-03T12:42:04.709Z,47.30
2023-05-03T12:43:52.536Z,45.70
2023-05-03T12:46:17.018Z,45.60
2023-05-03T12:48:19.691Z,48.80
2023-05-03T12:50:24.753Z,47.90
2023-05-03T12:54:35.192Z,47.50
2023-05-03T12:56:40.133Z,46.70
2023-05-03T12:59:07.478Z,47.40
2023-05-03T13:05:28.613Z,46.90
2023-05-03T13:07:42.481Z,47.80
2023-05-03T13:11:53.598Z,46.90
2023-05-03T13:13:56.524Z,46.10
2023-05-03T13:15:59.803Z,46.60
2023-05-03T13:18:04.767Z,47.10
2023-05-03T13:20:10.793Z,45.90
2023-05-03T13:22:14.055Z,46.20
2023-05-03T13:24:16.822Z,46.50
2023-05-03T13:26:21.174Z,46.80
2023-05-03T13:28:27.253Z,46.60
2023-05-03T13:30:30.869Z,45.80
2023-05-03T13:32:34.274Z,45.80
2023-05-03T13:34:37.542Z,45.70
2023-05-03T13:36:40.366Z,45.90
2023-05-03T13:38:43.123Z,46.00
2023-05-03T13:40:45.897Z,45.50
2023-05-03T13:42:49.958Z,45.60
2023-05-03T13:44:52.688Z,45.50
2023-05-03T13:46:55.660Z,45.10
2023-05-03T13:48:58.670Z,44.40
2023-05-03T13:51:01.860Z,44.50
2023-05-03T13:53:04.665Z,44.30
2023-05-03T13:55:08.625Z,44.60
2023-05-03T13:57:11.387Z,44.50
2023-05-03T13:59:15.624Z,44.40
2023-05-03T14:01:18.866Z,43.60
2023-05-03T14:03:21.846Z,43.50
2023-05-03T14:05:24.689Z,43.00
2023-05-03T14:07:27.436Z,43.80
2023-05-03T14:09:30.688Z,43.00
2023-05-03T14:11:33.864Z,42.70
2023-05-03T14:13:53.949Z,43.50
2023-05-03T14:15:59.436Z,43.80
2023-05-03T14:18:04.862Z,43.30
2023-05-03T14:20:11.963Z,42.50
2023-05-03T14:22:14.795Z,43.50
2023-05-03T14:24:17.991Z,44.20
2023-05-03T14:26:21.975Z,42.30
2023-05-03T14:28:36.270Z,40.00
2023-05-03T14:30:39.187Z,35.50
2023-05-03T14:32:43.392Z,34.30
2023-05-03T14:34:46.154Z,32.60
2023-05-03T14:36:48.973Z,30.50
2023-05-03T14:38:51.691Z,28.60
2023-05-03T14:40:54.525Z,27.60
2023-05-03T14:42:57.635Z,27.90
2023-05-03T14:45:00.825Z,26.60
2023-05-03T14:47:04.361Z,26.20
2023-05-03T14:49:08.558Z,26.00
2023-05-03T14:51:11.345Z,24.40
2023-05-03T14:53:14.074Z,24.70
2023-05-03T14:55:17.365Z,24.30
2023-05-03T14:57:23.205Z,23.90
2023-05-03T14:59:25.983Z,23.00
2023-05-03T15:01:28.805Z,23.70
2023-05-03T15:03:31.846Z,23.20
2023-05-03T15:05:36.290Z,23.20
2023-05-03T15:07:38.986Z,23.30
2023-05-03T15:09:41.872Z,22.50
2023-05-03T15:11:45.563Z,22.70
2023-05-03T15:13:48.654Z,22.10
2023-05-03T15:15:52.127Z,21.90
2023-05-03T15:17:54.918Z,21.90
2023-05-03T15:19:57.671Z,21.80
2023-05-03T15:22:01.792Z,21.80
2023-05-03T15:24:04.871Z,21.30
2023-05-03T15:26:07.690Z,21.00
2023-05-03T15:28:10.420Z,20.80
2023-05-03T15:30:14.810Z,21.00
2023-05-03T15:32:24.656Z,20.00
2023-05-03T15:34:33.017Z,20.30
2023-05-03T15:36:37.684Z,20.30
2023-05-03T15:38:42.093Z,21.80
2023-05-03T15:40:44.966Z,23.70
2023-05-03T15:42:47.756Z,24.70
2023-05-03T15:44:51.532Z,24.60
2023-05-03T15:46:54.533Z,25.60
2023-05-03T15:48:57.437Z,26.00
2023-05-03T15:51:00.437Z,26.40
2023-05-03T15:53:03.785Z,27.10
2023-05-03T15:55:10.413Z,27.60
2023-05-03T15:57:13.850Z,27.90
2023-05-03T15:59:16.597Z,28.30
2023-05-03T16:01:19.615Z,28.30
2023-05-03T16:03:22.710Z,28.40
2023-05-03T16:05:25.515Z,28.80
2023-05-03T16:07:28.613Z,29.10
2023-05-03T16:09:31.524Z,29.30
2023-05-03T16:11:35.880Z,29.50
2023-05-03T16:13:38.619Z,30.00
2023-05-03T16:15:41.391Z,30.60
2023-05-03T16:17:44.139Z,30.30
2023-05-03T16:19:46.906Z,28.50
2023-05-03T16:21:49.731Z,27.00
2023-05-03T16:23:54.517Z,25.70
2023-05-03T16:25:57.832Z,24.70
2023-05-03T16:28:01.998Z,23.70
2023-05-03T16:30:05.603Z,23.30
2023-05-03T16:32:09.783Z,23.70
2023-05-03T16:34:12.884Z,23.70
2023-05-03T16:36:15.731Z,23.70
2023-05-03T16:38:18.496Z,23.80
2023-05-03T16:40:33.452Z,23.00
2023-05-03T16:42:36.365Z,22.60
2023-05-03T16:44:40.407Z,22.70
2023-05-03T16:46:43.361Z,22.20
2023-05-03T16:48:46.116Z,23.20
2023-05-03T16:50:48.847Z,24.80
2023-05-03T16:52:51.702Z,26.10
2023-05-03T16:54:54.428Z,25.40
2023-05-03T16:56:57.516Z,24.90
2023-05-03T16:59:00.373Z,24.70
2023-05-03T17:01:04.545Z,25.50
2023-05-03T17:03:08.469Z,26.90
2023-05-03T17:05:21.252Z,28.10
2023-05-03T17:07:24.025Z,28.50
2023-05-03T17:09:27.026Z,29.10
2023-05-03T17:11:29.805Z,29.60
2023-05-03T17:13:32.700Z,30.30
2023-05-03T17:15:35.920Z,30.60
2023-05-03T17:17:40.406Z,31.30
2023-05-03T17:19:43.199Z,31.60
2023-05-03T17:21:45.920Z,32.10
2023-05-03T17:23:48.649Z,32.40
2023-05-03T17:25:58.100Z,32.60
2023-05-03T17:28:00.878Z,33.10
2023-05-03T17:30:04.420Z,33.50
2023-05-03T17:32:07.422Z,33.90
2023-05-03T17:34:11.529Z,34.40
2023-05-03T17:36:14.344Z,34.80
2023-05-03T17:38:17.127Z,35.20
2023-05-03T17:40:19.949Z,35.50
2023-05-03T17:42:22.761Z,35.80
2023-05-03T17:44:26.224Z,36.40
2023-05-03T17:46:29.611Z,36.10
2023-05-03T17:48:32.391Z,36.30
2023-05-03T17:50:37.318Z,35.60
2023-05-03T17:52:40.469Z,35.50
2023-05-03T17:54:43.297Z,34.80
2023-05-03T17:56:46.684Z,34.20
2023-05-03T17:58:49.566Z,34.30
2023-05-03T18:00:52.674Z,34.80
2023-05-03T18:02:56.139Z,35.50
2023-05-03T18:04:58.990Z,36.20
2023-05-03T18:07:03.135Z,36.60
2023-05-03T18:09:07.124Z,37.30
2023-05-03T18:11:10.233Z,37.60
2023-05-03T18:13:13.299Z,38.20
2023-05-03T18:15:16.522Z,38.70
2023-05-03T18:17:19.398Z,39.00
2023-05-03T18:19:22.492Z,39.10
2023-05-03T18:21:25.258Z,39.20
2023-05-03T18:23:30.249Z,39.90
2023-05-03T18:25:33.117Z,40.10
2023-05-03T18:27:37.596Z,40.40
2023-05-03T18:29:40.673Z,40.70
2023-05-03T18:31:43.495Z,40.90
2023-05-03T18:33:46.766Z,41.00
2023-05-03T18:35:50.100Z,41.20
2023-05-03T18:37:53.317Z,41.60
2023-05-03T18:39:57.440Z,41.90
2023-05-03T18:42:00.352Z,42.00
2023-05-03T18:44:04.843Z,42.40
2023-05-03T18:46:08.304Z,42.50
2023-05-03T18:48:11.965Z,42.90
2023-05-03T18:50:15.029Z,43.20
2023-05-03T18:52:17.846Z,43.50
2023-05-03T18:54:20.658Z,43.90
2023-05-03T18:56:24.684Z,44.10
2023-05-03T18:58:27.465Z,44.40
2023-05-03T19:00:30.212Z,44.70
2023-05-03T19:02:33.136Z,44.90
2023-05-03T19:04:35.973Z,45.10
2023-05-03T19:06:38.912Z,45.70
2023-05-03T19:08:43.584Z,46.00
2023-05-03T19:10:46.296Z,46.20
2023-05-03T19:12:52.818Z,46.30
2023-05-03T19:14:55.597Z,46.40
2023-05-03T19:16:58.456Z,46.60
2023-05-03T19:19:01.491Z,46.90
2023-05-03T19:21:04.777Z,47.00
2023-05-03T19:23:07.570Z,47.50
2023-05-03T19:25:10.823Z,48.10
2023-05-03T19:27:13.683Z,47.60
2023-05-03T19:29:17.786Z,47.70
2023-05-03T19:31:20.668Z,47.80
2023-05-03T19:33:23.527Z,48.00
2023-05-03T19:35:26.367Z,48.20
2023-05-03T19:37:29.120Z,48.30
2023-05-03T19:39:35.546Z,48.20
2023-05-03T19:41:38.633Z,48.50
2023-05-03T19:43:42.108Z,48.50
2023-05-03T19:45:46.275Z,49.00
2023-05-03T19:47:49.219Z,49.10
2023-05-03T19:49:52.091Z,50.00
2023-05-03T19:51:55.909Z,49.50
2023-05-03T19:53:58.693Z,49.50
2023-05-03T19:56:03.970Z,49.50
2023-05-03T19:58:07.398Z,49.40
2023-05-03T20:00:11.704Z,49.80
2023-05-03T20:02:16.526Z,49.70
2023-05-03T20:04:19.352Z,49.80
2023-05-03T20:06:22.345Z,49.90
2023-05-03T20:08:25.279Z,50.20
2023-05-03T20:10:28.249Z,50.20
2023-05-03T20:12:31.052Z,50.20
2023-05-03T20:14:33.792Z,50.60
2023-05-03T20:16:39.088Z,50.50
2023-05-03T20:18:43.561Z,50.60
2023-05-03T20:20:46.307Z,51.10
2023-05-03T20:22:49.843Z,51.20
2023-05-03T20:24:52.730Z,52.10
2023-05-03T20:26:55.624Z,52.40
2023-05-03T20:28:58.380Z,52.20
2023-05-03T20:31:01.108Z,53.10
2023-05-03T20:33:04.368Z,52.30
2023-05-03T20:35:10.424Z,52.60
2023-05-03T20:37:13.116Z,52.70
2023-05-03T20:39:15.865Z,54.10
2023-05-03T20:41:18.871Z,54.20
2023-05-03T20:43:21.633Z,53.70
2023-05-03T20:45:24.367Z,53.50
2023-05-03T20:47:27.739Z,53.40
2023-05-03T20:49:31.128Z,53.20
2023-05-03T20:51:35.349Z,53.90
2023-05-03T20:53:38.115Z,53.50
2023-05-03T20:55:40.868Z,53.30
2023-05-03T20:57:43.963Z,53.20
2023-05-03T20:59:46.825Z,53.10
2023-05-03T21:01:49.633Z,53.20
2023-05-03T21:03:52.376Z,53.20
2023-05-03T21:05:56.408Z,53.10
2023-05-03T21:08:00.513Z,53.00
2023-05-03T21:10:03.576Z,53.10
2023-05-03T21:12:07.042Z,53.20
2023-05-03T21:14:09.854Z,53.40
2023-05-03T21:16:12.632Z,54.50
2023-05-03T21:18:15.840Z,55.40
2023-05-03T21:20:18.869Z,54.80
2023-05-03T21:22:21.693Z,54.60
2023-05-03T21:24:27.430Z,54.90
2023-05-03T21:26:30.413Z,54.80
2023-05-03T21:28:33.600Z,54.70
2023-05-03T21:30:36.381Z,54.60
2023-05-03T21:32:39.252Z,54.50
2023-05-03T21:34:42.126Z,54.30
2023-05-03T21:36:44.988Z,54.30
2023-05-03T21:38:52.218Z,54.40
2023-05-03T21:41:05.148Z,54.50
2023-05-03T21:43:09.166Z,55.70
2023-05-03T21:45:12.909Z,55.50
2023-05-03T21:47:15.735Z,55.80
2023-05-03T21:49:18.576Z,55.40
2023-05-03T21:51:21.924Z,55.20
2023-05-03T21:53:24.675Z,55.20
2023-05-03T21:55:27.508Z,54.80
2023-05-03T21:57:32.999Z,55.10
2023-05-03T21:59:35.949Z,55.30
2023-05-03T22:01:39.017Z,55.10
2023-05-03T22:03:41.974Z,55.20
2023-05-03T22:05:47.723Z,55.40
2023-05-03T22:07:50.672Z,55.30
2023-05-03T22:09:53.408Z,55.80
2023-05-03T22:11:56.142Z,55.60
2023-05-03T22:14:07.619Z,55.60
2023-05-03T22:16:12.460Z,55.40
2023-05-03T22:18:15.669Z,55.30
2023-05-03T22:20:18.422Z,55.30
2023-05-03T22:22:21.168Z,55.30
2023-05-03T22:24:24.100Z,55.50
2023-05-03T22:26:26.950Z,55.60
2023-05-03T22:28:29.984Z,55.50
2023-05-03T22:30:34.034Z,56.00
2023-05-03T22:32:36.993Z,55.80
2023-05-03T22:34:39.847Z,55.80
2023-05-03T22:36:42.617Z,56.20
2023-05-03T22:38:45.357Z,56.60
2023-05-03T22:40:48.312Z,56.30
2023-05-03T22:42:51.451Z,56.40
2023-05-03T22:44:55.797Z,56.20
2023-05-03T22:47:01.090Z,56.50
2023-05-03T22:49:04.227Z,56.60
2023-05-03T22:51:07.091Z,56.50
2023-05-03T22:53:09.895Z,56.50
2023-05-03T22:55:13.035Z,56.50
2023-05-03T22:57:15.888Z,56.50
2023-05-03T22:59:18.747Z,56.60
2023-05-03T23:01:21.579Z,56.90
2023-05-03T23:03:27.014Z,57.60
2023-05-03T23:05:30.392Z,57.30
2023-05-03T23:07:33.177Z,57.40
2023-05-03T23:09:35.911Z,59.20
2023-05-03T23:11:38.760Z,60.00
2023-05-03T23:13:41.557Z,59.60
2023-05-03T23:15:44.654Z,59.20
2023-05-03T23:17:47.604Z,59.00
2023-05-03T23:19:51.856Z,58.80
2023-05-03T23:21:54.870Z,59.80
2023-05-03T23:23:57.626Z,59.50
2023-05-03T23:26:00.521Z,59.80
2023-05-03T23:28:03.824Z,59.50
2023-05-03T23:30:08.951Z,59.40
2023-05-03T23:32:12.272Z,59.30
2023-05-03T23:34:15.371Z,59.00
2023-05-03T23:36:19.488Z,59.20
2023-05-03T23:38:22.276Z,59.20
2023-05-03T23:40:25.043Z,59.00
2023-05-03T23:42:28.130Z,59.00
2023-05-03T23:44:46.479Z,59.60
2023-05-03T23:46:53.705Z,58.90
2023-05-03T23:48:56.527Z,58.80
2023-05-03T23:50:59.284Z,58.90
2023-05-03T23:53:04.637Z,59.00
2023-05-03T23:55:08.385Z,59.20
2023-05-03T23:57:11.157Z,59.20
2023-05-03T23:59:13.864Z,59.50
